sensor_id;sensor_type;location;lat;lon;timestamp;temperature;humidity
17697;DHT22;8967;47.984;7.842;2023-04-03T00:00:29;8.50;99.90
17697;DHT22;8967;47.984;7.842;2023-04-03T00:02:57;8.50;99.90
17697;DHT22;8967;47.984;7.842;2023-04-03T00:05:24;8.50;99.90
17697;DHT22;8967;47.984;7.842;2023-04-03T00:07:51;8.40;99.90
17697;DHT22;8967;47.984;7.842;2023-04-03T00:10:19;8.40;99.90
17697;DHT22;8967;47.984;7.842;2023-04-03T00:12:46;8.40;99.90
17697;DHT22;8967;47.984;7.842;2023-04-03T00:15:14;8.40;99.90
17697;DHT22;8967;47.984;7.842;2023-04-03T00:17:43;8.40;99.90
17697;DHT22;8967;47.984;7.842;2023-04-03T00:20:11;8.40;99.90
17697;DHT22;8967;47.984;7.842;2023-04-03T00:22:38;8.30;99.90
17697;DHT22;8967;47.984;7.842;2023-04-03T00:25:08;8.30;99.90
17697;DHT22;8967;47.984;7.842;2023-04-03T00:27:37;8.30;99.90
17697;DHT22;8967;47.984;7.842;2023-04-03T00:30:09;8.20;99.90
17697;DHT22;8967;47.984;7.842;2023-04-03T00:32:37;8.20;99.90
17697;DHT22;8967;47.984;7.842;2023-04-03T00:35:04;8.20;99.90
17697;DHT22;8967;47.984;7.842;2023-04-03T00:37:32;8.20;99.90
17697;DHT22;8967;47.984;7.842;2023-04-03T00:39:59;8.20;99.90
17697;DHT22;8967;47.984;7.842;2023-04-03T00:42:26;8.20;99.90
17697;DHT22;8967;47.984;7.842;2023-04-03T00:45:22;8.20;99.90
17697;DHT22;8967;47.984;7.842;2023-04-03T00:47:50;8.10;99.90
17697;DHT22;8967;47.984;7.842;2023-04-03T00:50:18;8.10;99.90
17697;DHT22;8967;47.984;7.842;2023-04-03T00:52:45;8.10;99.90
17697;DHT22;8967;47.984;7.842;2023-04-03T00:55:15;8.10;99.90
17697;DHT22;8967;47.984;7.842;2023-04-03T00:57:42;8.10;99.90
17697;DHT22;8967;47.984;7.842;2023-04-03T01:00:14;8.00;99.90
17697;DHT22;8967;47.984;7.842;2023-04-03T01:02:44;8.00;99.90
17697;DHT22;8967;47.984;7.842;2023-04-03T01:05:13;8.00;99.90
17697;DHT22;8967;47.984;7.842;2023-04-03T01:07:42;8.00;99.90
17697;DHT22;8967;47.984;7.842;2023-04-03T01:10:12;8.00;99.90
17697;DHT22;8967;47.984;7.842;2023-04-03T01:12:42;8.00;99.90
17697;DHT22;8967;47.984;7.842;2023-04-03T01:15:12;7.90;99.90
17697;DHT22;8967;47.984;7.842;2023-04-03T01:17:42;7.90;99.90
17697;DHT22;8967;47.984;7.842;2023-04-03T01:23:25;7.80;99.90
17697;DHT22;8967;47.984;7.842;2023-04-03T01:25:55;7.80;99.90
17697;DHT22;8967;47.984;7.842;2023-04-03T01:28:24;7.80;99.90
17697;DHT22;8967;47.984;7.842;2023-04-03T01:31:00;7.80;99.90
17697;DHT22;8967;47.984;7.842;2023-04-03T01:33:33;7.80;99.90
17697;DHT22;8967;47.984;7.842;2023-04-03T01:36:00;7.70;99.90
17697;DHT22;8967;47.984;7.842;2023-04-03T01:38:30;7.70;99.90
17697;DHT22;8967;47.984;7.842;2023-04-03T01:40:57;7.70;99.90
17697;DHT22;8967;47.984;7.842;2023-04-03T01:43:24;7.70;99.90
17697;DHT22;8967;47.984;7.842;2023-04-03T01:45:51;7.70;99.90
17697;DHT22;8967;47.984;7.842;2023-04-03T01:48:23;7.70;99.90
17697;DHT22;8967;47.984;7.842;2023-04-03T01:50:51;7.70;99.90
17697;DHT22;8967;47.984;7.842;2023-04-03T01:53:19;7.70;99.90
17697;DHT22;8967;47.984;7.842;2023-04-03T01:55:46;7.70;99.90
17697;DHT22;8967;47.984;7.842;2023-04-03T01:58:15;7.70;99.90
17697;DHT22;8967;47.984;7.842;2023-04-03T02:00:42;7.70;99.90
17697;DHT22;8967;47.984;7.842;2023-04-03T02:03:11;7.70;99.90
17697;DHT22;8967;47.984;7.842;2023-04-03T02:05:38;7.70;99.90
17697;DHT22;8967;47.984;7.842;2023-04-03T02:08:10;7.70;99.90
17697;DHT22;8967;47.984;7.842;2023-04-03T02:10:39;7.60;99.90
17697;DHT22;8967;47.984;7.842;2023-04-03T02:13:06;7.60;99.90
17697;DHT22;8967;47.984;7.842;2023-04-03T02:15:34;7.60;99.90
17697;DHT22;8967;47.984;7.842;2023-04-03T02:18:04;7.60;99.90
17697;DHT22;8967;47.984;7.842;2023-04-03T02:20:31;7.60;99.90
17697;DHT22;8967;47.984;7.842;2023-04-03T02:22:59;7.60;99.90
17697;DHT22;8967;47.984;7.842;2023-04-03T02:25:27;7.60;99.90
17697;DHT22;8967;47.984;7.842;2023-04-03T02:27:57;7.60;99.90
17697;DHT22;8967;47.984;7.842;2023-04-03T02:30:23;7.60;99.90
17697;DHT22;8967;47.984;7.842;2023-04-03T02:32:53;7.60;99.90
17697;DHT22;8967;47.984;7.842;2023-04-03T02:35:21;7.50;99.90
17697;DHT22;8967;47.984;7.842;2023-04-03T02:37:48;7.50;99.90
17697;DHT22;8967;47.984;7.842;2023-04-03T02:40:17;7.50;99.90
17697;DHT22;8967;47.984;7.842;2023-04-03T02:42:45;7.50;99.90
17697;DHT22;8967;47.984;7.842;2023-04-03T02:45:12;7.40;99.90
17697;DHT22;8967;47.984;7.842;2023-04-03T02:47:39;7.40;99.90
17697;DHT22;8967;47.984;7.842;2023-04-03T02:50:07;7.30;99.90
17697;DHT22;8967;47.984;7.842;2023-04-03T02:52:34;7.30;99.90
17697;DHT22;8967;47.984;7.842;2023-04-03T02:55:01;7.30;99.90
17697;DHT22;8967;47.984;7.842;2023-04-03T02:57:28;7.20;99.90
17697;DHT22;8967;47.984;7.842;2023-04-03T02:59:56;7.20;99.90
17697;DHT22;8967;47.984;7.842;2023-04-03T03:02:23;7.20;99.90
17697;DHT22;8967;47.984;7.842;2023-04-03T03:04:50;7.20;99.90
17697;DHT22;8967;47.984;7.842;2023-04-03T03:07:17;7.20;99.90
17697;DHT22;8967;47.984;7.842;2023-04-03T03:09:44;7.20;99.90
17697;DHT22;8967;47.984;7.842;2023-04-03T03:12:13;7.20;99.90
17697;DHT22;8967;47.984;7.842;2023-04-03T03:14:40;7.20;99.90
17697;DHT22;8967;47.984;7.842;2023-04-03T03:17:12;7.20;99.90
17697;DHT22;8967;47.984;7.842;2023-04-03T03:19:39;7.20;99.90
17697;DHT22;8967;47.984;7.842;2023-04-03T03:22:06;7.20;99.90
17697;DHT22;8967;47.984;7.842;2023-04-03T03:24:50;7.20;99.90
17697;DHT22;8967;47.984;7.842;2023-04-03T03:27:17;7.20;99.90
17697;DHT22;8967;47.984;7.842;2023-04-03T03:29:44;7.20;99.90
17697;DHT22;8967;47.984;7.842;2023-04-03T03:32:15;7.20;99.90
17697;DHT22;8967;47.984;7.842;2023-04-03T03:34:42;7.30;99.90
17697;DHT22;8967;47.984;7.842;2023-04-03T03:37:09;7.20;99.90
17697;DHT22;8967;47.984;7.842;2023-04-03T03:39:38;7.20;99.90
17697;DHT22;8967;47.984;7.842;2023-04-03T03:42:05;7.20;99.90
17697;DHT22;8967;47.984;7.842;2023-04-03T03:44:32;7.20;99.90
17697;DHT22;8967;47.984;7.842;2023-04-03T03:46:59;7.20;99.90
17697;DHT22;8967;47.984;7.842;2023-04-03T03:49:31;7.20;99.90
17697;DHT22;8967;47.984;7.842;2023-04-03T03:51:58;7.20;99.90
17697;DHT22;8967;47.984;7.842;2023-04-03T03:54:25;7.20;99.90
17697;DHT22;8967;47.984;7.842;2023-04-03T03:56:54;7.20;99.90
17697;DHT22;8967;47.984;7.842;2023-04-03T03:59:23;7.20;99.90
17697;DHT22;8967;47.984;7.842;2023-04-03T04:01:50;7.20;99.90
17697;DHT22;8967;47.984;7.842;2023-04-03T04:04:17;7.20;99.90
17697;DHT22;8967;47.984;7.842;2023-04-03T04:06:50;7.20;99.90
17697;DHT22;8967;47.984;7.842;2023-04-03T04:09:17;7.20;99.90
17697;DHT22;8967;47.984;7.842;2023-04-03T04:11:45;7.20;99.90
17697;DHT22;8967;47.984;7.842;2023-04-03T04:14:16;7.20;99.90
17697;DHT22;8967;47.984;7.842;2023-04-03T04:16:45;7.20;99.90
17697;DHT22;8967;47.984;7.842;2023-04-03T04:19:17;7.20;99.90
17697;DHT22;8967;47.984;7.842;2023-04-03T04:21:44;7.20;99.90
17697;DHT22;8967;47.984;7.842;2023-04-03T04:24:13;7.20;99.90
17697;DHT22;8967;47.984;7.842;2023-04-03T04:26:43;7.20;99.90
17697;DHT22;8967;47.984;7.842;2023-04-03T04:29:14;7.20;99.90
17697;DHT22;8967;47.984;7.842;2023-04-03T04:31:45;7.20;99.90
17697;DHT22;8967;47.984;7.842;2023-04-03T04:34:15;7.20;99.90
17697;DHT22;8967;47.984;7.842;2023-04-03T04:36:42;7.20;99.90
17697;DHT22;8967;47.984;7.842;2023-04-03T04:39:09;7.20;99.90
17697;DHT22;8967;47.984;7.842;2023-04-03T04:41:38;7.20;99.90
17697;DHT22;8967;47.984;7.842;2023-04-03T04:44:06;7.20;99.90
17697;DHT22;8967;47.984;7.842;2023-04-03T04:46:34;7.20;99.90
17697;DHT22;8967;47.984;7.842;2023-04-03T04:49:02;7.20;99.90
17697;DHT22;8967;47.984;7.842;2023-04-03T04:51:30;7.10;99.90
17697;DHT22;8967;47.984;7.842;2023-04-03T04:53:59;7.10;99.90
17697;DHT22;8967;47.984;7.842;2023-04-03T04:56:26;7.10;99.90
17697;DHT22;8967;47.984;7.842;2023-04-03T04:58:56;7.10;99.90
17697;DHT22;8967;47.984;7.842;2023-04-03T05:01:24;7.20;99.90
17697;DHT22;8967;47.984;7.842;2023-04-03T05:04:11;7.10;99.90
17697;DHT22;8967;47.984;7.842;2023-04-03T05:06:39;7.10;99.90
17697;DHT22;8967;47.984;7.842;2023-04-03T05:09:11;7.20;99.90
17697;DHT22;8967;47.984;7.842;2023-04-03T05:11:40;7.10;99.90
17697;DHT22;8967;47.984;7.842;2023-04-03T05:14:09;7.10;99.90
17697;DHT22;8967;47.984;7.842;2023-04-03T05:16:38;7.10;99.90
17697;DHT22;8967;47.984;7.842;2023-04-03T05:19:06;7.10;99.90
17697;DHT22;8967;47.984;7.842;2023-04-03T05:21:34;7.10;99.90
17697;DHT22;8967;47.984;7.842;2023-04-03T05:24:06;7.00;99.90
17697;DHT22;8967;47.984;7.842;2023-04-03T05:26:38;7.00;99.90
17697;DHT22;8967;47.984;7.842;2023-04-03T05:29:06;7.00;99.90
17697;DHT22;8967;47.984;7.842;2023-04-03T05:31:35;7.00;99.90
17697;DHT22;8967;47.984;7.842;2023-04-03T05:34:02;7.00;99.90
17697;DHT22;8967;47.984;7.842;2023-04-03T05:36:34;7.00;99.90
17697;DHT22;8967;47.984;7.842;2023-04-03T05:39:05;7.00;99.90
17697;DHT22;8967;47.984;7.842;2023-04-03T05:41:34;7.00;99.90
17697;DHT22;8967;47.984;7.842;2023-04-03T05:44:01;7.00;99.90
17697;DHT22;8967;47.984;7.842;2023-04-03T05:46:31;7.00;99.90
17697;DHT22;8967;47.984;7.842;2023-04-03T05:49:03;7.00;99.90
17697;DHT22;8967;47.984;7.842;2023-04-03T05:51:35;7.00;99.90
17697;DHT22;8967;47.984;7.842;2023-04-03T05:54:27;7.00;99.90
17697;DHT22;8967;47.984;7.842;2023-04-03T05:57:08;7.00;99.90
17697;DHT22;8967;47.984;7.842;2023-04-03T05:59:37;7.00;99.90
17697;DHT22;8967;47.984;7.842;2023-04-03T06:02:04;7.10;99.90
17697;DHT22;8967;47.984;7.842;2023-04-03T06:04:33;7.00;99.90
17697;DHT22;8967;47.984;7.842;2023-04-03T06:07:02;7.00;99.90
17697;DHT22;8967;47.984;7.842;2023-04-03T06:09:29;7.00;99.90
17697;DHT22;8967;47.984;7.842;2023-04-03T06:11:59;7.00;99.90
17697;DHT22;8967;47.984;7.842;2023-04-03T06:14:28;7.00;99.90
17697;DHT22;8967;47.984;7.842;2023-04-03T06:16:55;7.00;99.90
17697;DHT22;8967;47.984;7.842;2023-04-03T06:19:22;7.00;99.90
17697;DHT22;8967;47.984;7.842;2023-04-03T06:21:57;7.10;99.90
17697;DHT22;8967;47.984;7.842;2023-04-03T06:24:24;7.10;99.90
17697;DHT22;8967;47.984;7.842;2023-04-03T06:26:54;7.10;99.90
17697;DHT22;8967;47.984;7.842;2023-04-03T06:29:21;7.20;99.90
17697;DHT22;8967;47.984;7.842;2023-04-03T06:31:49;7.20;99.90
17697;DHT22;8967;47.984;7.842;2023-04-03T06:34:16;7.20;99.90
17697;DHT22;8967;47.984;7.842;2023-04-03T06:36:45;7.30;99.90
17697;DHT22;8967;47.984;7.842;2023-04-03T06:39:21;7.30;99.90
17697;DHT22;8967;47.984;7.842;2023-04-03T06:41:49;7.30;99.90
17697;DHT22;8967;47.984;7.842;2023-04-03T06:44:19;7.30;99.90
17697;DHT22;8967;47.984;7.842;2023-04-03T06:46:47;7.30;99.90
17697;DHT22;8967;47.984;7.842;2023-04-03T06:49:16;7.40;99.90
17697;DHT22;8967;47.984;7.842;2023-04-03T06:51:43;7.40;99.90
17697;DHT22;8967;47.984;7.842;2023-04-03T06:54:10;7.40;99.90
17697;DHT22;8967;47.984;7.842;2023-04-03T06:56:38;7.40;99.90
17697;DHT22;8967;47.984;7.842;2023-04-03T06:59:05;7.50;99.80
17697;DHT22;8967;47.984;7.842;2023-04-03T07:01:32;7.50;98.80
17697;DHT22;8967;47.984;7.842;2023-04-03T07:03:59;7.50;97.60
17697;DHT22;8967;47.984;7.842;2023-04-03T07:06:26;7.60;96.60
17697;DHT22;8967;47.984;7.842;2023-04-03T07:08:53;7.60;96.70
17697;DHT22;8967;47.984;7.842;2023-04-03T07:11:20;7.60;96.20
17697;DHT22;8967;47.984;7.842;2023-04-03T07:13:49;7.60;95.50
17697;DHT22;8967;47.984;7.842;2023-04-03T07:16:16;7.60;95.20
17697;DHT22;8967;47.984;7.842;2023-04-03T07:18:44;7.70;95.10
17697;DHT22;8967;47.984;7.842;2023-04-03T07:21:11;7.70;94.60
17697;DHT22;8967;47.984;7.842;2023-04-03T07:23:38;7.70;94.00
17697;DHT22;8967;47.984;7.842;2023-04-03T07:26:05;7.70;93.50
17697;DHT22;8967;47.984;7.842;2023-04-03T07:28:33;7.80;93.20
17697;DHT22;8967;47.984;7.842;2023-04-03T07:31:06;7.80;93.00
17697;DHT22;8967;47.984;7.842;2023-04-03T07:33:36;7.90;93.10
17697;DHT22;8967;47.984;7.842;2023-04-03T07:36:04;7.90;92.70
17697;DHT22;8967;47.984;7.842;2023-04-03T07:38:33;8.00;91.40
17697;DHT22;8967;47.984;7.842;2023-04-03T07:41:04;8.10;90.70
17697;DHT22;8967;47.984;7.842;2023-04-03T07:43:33;8.00;90.50
17697;DHT22;8967;47.984;7.842;2023-04-03T07:46:00;8.10;90.30
17697;DHT22;8967;47.984;7.842;2023-04-03T07:48:32;8.10;90.10
17697;DHT22;8967;47.984;7.842;2023-04-03T07:51:01;8.10;88.70
17697;DHT22;8967;47.984;7.842;2023-04-03T07:53:31;8.10;88.40
17697;DHT22;8967;47.984;7.842;2023-04-03T07:55:58;8.10;87.90
17697;DHT22;8967;47.984;7.842;2023-04-03T07:58:29;8.20;87.20
17697;DHT22;8967;47.984;7.842;2023-04-03T08:00:56;8.30;86.90
17697;DHT22;8967;47.984;7.842;2023-04-03T08:03:23;8.30;86.60
17697;DHT22;8967;47.984;7.842;2023-04-03T08:05:52;8.30;86.50
17697;DHT22;8967;47.984;7.842;2023-04-03T08:08:20;8.30;85.60
17697;DHT22;8967;47.984;7.842;2023-04-03T08:10:51;8.20;85.50
17697;DHT22;8967;47.984;7.842;2023-04-03T08:13:19;8.30;85.40
17697;DHT22;8967;47.984;7.842;2023-04-03T08:15:46;8.30;85.90
17697;DHT22;8967;47.984;7.842;2023-04-03T08:18:13;8.40;85.50
17697;DHT22;8967;47.984;7.842;2023-04-03T08:20:43;8.40;85.20
17697;DHT22;8967;47.984;7.842;2023-04-03T08:23:11;8.40;83.90
17697;DHT22;8967;47.984;7.842;2023-04-03T08:25:39;8.50;84.70
17697;DHT22;8967;47.984;7.842;2023-04-03T08:28:09;8.50;83.50
17697;DHT22;8967;47.984;7.842;2023-04-03T08:30:39;8.60;82.40
17697;DHT22;8967;47.984;7.842;2023-04-03T08:33:06;8.60;82.20
17697;DHT22;8967;47.984;7.842;2023-04-03T08:35:37;8.60;81.60
17697;DHT22;8967;47.984;7.842;2023-04-03T08:38:04;8.50;82.80
17697;DHT22;8967;47.984;7.842;2023-04-03T08:40:33;8.50;83.30
17697;DHT22;8967;47.984;7.842;2023-04-03T08:43:10;8.60;81.50
17697;DHT22;8967;47.984;7.842;2023-04-03T08:45:46;8.60;82.50
17697;DHT22;8967;47.984;7.842;2023-04-03T08:48:19;8.60;82.30
17697;DHT22;8967;47.984;7.842;2023-04-03T08:50:50;8.60;81.90
17697;DHT22;8967;47.984;7.842;2023-04-03T08:53:20;8.50;82.00
17697;DHT22;8967;47.984;7.842;2023-04-03T08:55:49;8.60;81.20
17697;DHT22;8967;47.984;7.842;2023-04-03T08:58:19;8.70;79.20
17697;DHT22;8967;47.984;7.842;2023-04-03T09:00:55;8.70;79.00
17697;DHT22;8967;47.984;7.842;2023-04-03T09:03:23;8.70;79.10
17697;DHT22;8967;47.984;7.842;2023-04-03T09:05:53;8.60;78.90
17697;DHT22;8967;47.984;7.842;2023-04-03T09:08:27;8.60;77.50
17697;DHT22;8967;47.984;7.842;2023-04-03T09:11:13;8.50;78.10
17697;DHT22;8967;47.984;7.842;2023-04-03T09:13:49;8.50;79.40
17697;DHT22;8967;47.984;7.842;2023-04-03T09:16:35;8.50;78.50
17697;DHT22;8967;47.984;7.842;2023-04-03T09:19:07;8.50;79.00
17697;DHT22;8967;47.984;7.842;2023-04-03T09:21:39;8.60;79.80
17697;DHT22;8967;47.984;7.842;2023-04-03T09:24:10;8.60;78.70
17697;DHT22;8967;47.984;7.842;2023-04-03T09:26:46;8.60;77.50
17697;DHT22;8967;47.984;7.842;2023-04-03T09:29:20;8.60;77.70
17697;DHT22;8967;47.984;7.842;2023-04-03T09:31:52;8.60;77.10
17697;DHT22;8967;47.984;7.842;2023-04-03T09:34:23;8.50;78.20
17697;DHT22;8967;47.984;7.842;2023-04-03T09:36:57;8.50;77.40
17697;DHT22;8967;47.984;7.842;2023-04-03T09:39:26;8.60;77.50
17697;DHT22;8967;47.984;7.842;2023-04-03T09:42:02;8.60;76.80
17697;DHT22;8967;47.984;7.842;2023-04-03T09:44:32;8.60;76.20
17697;DHT22;8967;47.984;7.842;2023-04-03T09:46:59;8.50;75.30
17697;DHT22;8967;47.984;7.842;2023-04-03T09:49:43;8.50;76.70
17697;DHT22;8967;47.984;7.842;2023-04-03T09:52:22;8.40;77.00
17697;DHT22;8967;47.984;7.842;2023-04-03T09:54:49;8.50;75.10
17697;DHT22;8967;47.984;7.842;2023-04-03T09:57:32;8.50;75.00
17697;DHT22;8967;47.984;7.842;2023-04-03T10:00:01;8.50;74.10
17697;DHT22;8967;47.984;7.842;2023-04-03T10:02:39;8.60;74.10
17697;DHT22;8967;47.984;7.842;2023-04-03T10:05:27;8.70;74.10
17697;DHT22;8967;47.984;7.842;2023-04-03T10:08:09;8.70;73.60
17697;DHT22;8967;47.984;7.842;2023-04-03T10:10:37;8.80;73.50
17697;DHT22;8967;47.984;7.842;2023-04-03T10:13:10;8.90;73.90
17697;DHT22;8967;47.984;7.842;2023-04-03T10:15:42;8.90;73.60
17697;DHT22;8967;47.984;7.842;2023-04-03T10:18:28;8.90;71.60
17697;DHT22;8967;47.984;7.842;2023-04-03T10:20:59;8.90;71.60
17697;DHT22;8967;47.984;7.842;2023-04-03T10:23:33;9.00;72.30
17697;DHT22;8967;47.984;7.842;2023-04-03T10:26:09;8.90;72.50
17697;DHT22;8967;47.984;7.842;2023-04-03T10:28:48;9.00;72.00
17697;DHT22;8967;47.984;7.842;2023-04-03T10:31:25;9.00;71.90
17697;DHT22;8967;47.984;7.842;2023-04-03T10:34:00;9.00;71.40
17697;DHT22;8967;47.984;7.842;2023-04-03T10:36:37;9.10;70.50
17697;DHT22;8967;47.984;7.842;2023-04-03T10:39:15;9.10;71.00
17697;DHT22;8967;47.984;7.842;2023-04-03T10:41:53;9.00;71.20
17697;DHT22;8967;47.984;7.842;2023-04-03T10:44:32;9.10;71.20
17697;DHT22;8967;47.984;7.842;2023-04-03T10:47:09;9.10;71.90
17697;DHT22;8967;47.984;7.842;2023-04-03T10:49:48;9.20;71.50
17697;DHT22;8967;47.984;7.842;2023-04-03T10:52:21;9.20;71.80
17697;DHT22;8967;47.984;7.842;2023-04-03T10:54:56;9.30;71.50
17697;DHT22;8967;47.984;7.842;2023-04-03T10:57:28;9.30;71.50
17697;DHT22;8967;47.984;7.842;2023-04-03T11:00:00;9.30;71.70
17697;DHT22;8967;47.984;7.842;2023-04-03T11:02:30;9.40;70.40
17697;DHT22;8967;47.984;7.842;2023-04-03T11:05:01;9.30;70.30
17697;DHT22;8967;47.984;7.842;2023-04-03T11:07:32;9.30;70.50
17697;DHT22;8967;47.984;7.842;2023-04-03T11:10:03;9.30;70.80
17697;DHT22;8967;47.984;7.842;2023-04-03T11:12:38;9.30;71.20
17697;DHT22;8967;47.984;7.842;2023-04-03T11:15:12;9.30;71.20
17697;DHT22;8967;47.984;7.842;2023-04-03T11:17:43;9.30;71.50
17697;DHT22;8967;47.984;7.842;2023-04-03T11:20:18;9.20;71.40
17697;DHT22;8967;47.984;7.842;2023-04-03T11:22:50;9.20;72.70
17697;DHT22;8967;47.984;7.842;2023-04-03T11:25:20;9.20;72.20
17697;DHT22;8967;47.984;7.842;2023-04-03T11:27:53;9.30;72.70
17697;DHT22;8967;47.984;7.842;2023-04-03T11:30:32;9.30;72.60
17697;DHT22;8967;47.984;7.842;2023-04-03T11:33:21;9.40;70.60
17697;DHT22;8967;47.984;7.842;2023-04-03T11:35:52;9.40;71.80
17697;DHT22;8967;47.984;7.842;2023-04-03T11:38:23;9.50;71.10
17697;DHT22;8967;47.984;7.842;2023-04-03T11:40:55;9.60;70.10
17697;DHT22;8967;47.984;7.842;2023-04-03T11:43:25;9.50;70.30
17697;DHT22;8967;47.984;7.842;2023-04-03T11:45:57;9.50;70.30
17697;DHT22;8967;47.984;7.842;2023-04-03T11:48:45;9.50;70.20
17697;DHT22;8967;47.984;7.842;2023-04-03T11:51:41;9.40;71.20
17697;DHT22;8967;47.984;7.842;2023-04-03T12:01:01;9.50;73.10
17697;DHT22;8967;47.984;7.842;2023-04-03T12:04:10;9.60;72.60
17697;DHT22;8967;47.984;7.842;2023-04-03T12:10:15;9.70;70.50
17697;DHT22;8967;47.984;7.842;2023-04-03T12:12:45;9.70;70.80
17697;DHT22;8967;47.984;7.842;2023-04-03T12:15:42;9.80;71.30
17697;DHT22;8967;47.984;7.842;2023-04-03T12:21:19;9.90;70.20
17697;DHT22;8967;47.984;7.842;2023-04-03T12:24:02;9.90;70.50
17697;DHT22;8967;47.984;7.842;2023-04-03T12:26:33;9.80;70.70
17697;DHT22;8967;47.984;7.842;2023-04-03T12:29:13;9.80;71.00
17697;DHT22;8967;47.984;7.842;2023-04-03T12:31:58;9.90;69.90
17697;DHT22;8967;47.984;7.842;2023-04-03T12:37:51;9.80;68.20
17697;DHT22;8967;47.984;7.842;2023-04-03T12:40:25;9.70;69.50
17697;DHT22;8967;47.984;7.842;2023-04-03T12:43:05;9.60;69.80
17697;DHT22;8967;47.984;7.842;2023-04-03T12:45:41;9.60;70.30
17697;DHT22;8967;47.984;7.842;2023-04-03T12:48:14;9.70;70.30
17697;DHT22;8967;47.984;7.842;2023-04-03T12:50:43;9.70;70.90
17697;DHT22;8967;47.984;7.842;2023-04-03T12:53:16;9.80;68.30
17697;DHT22;8967;47.984;7.842;2023-04-03T12:55:44;9.90;67.60
17697;DHT22;8967;47.984;7.842;2023-04-03T12:58:16;9.90;68.10
17697;DHT22;8967;47.984;7.842;2023-04-03T13:00:43;9.80;68.50
17697;DHT22;8967;47.984;7.842;2023-04-03T13:03:22;9.80;69.40
17697;DHT22;8967;47.984;7.842;2023-04-03T13:05:50;9.90;69.80
17697;DHT22;8967;47.984;7.842;2023-04-03T13:08:19;9.90;69.40
17697;DHT22;8967;47.984;7.842;2023-04-03T13:10:52;9.90;68.70
17697;DHT22;8967;47.984;7.842;2023-04-03T13:13:25;9.90;69.40
17697;DHT22;8967;47.984;7.842;2023-04-03T13:15:53;9.90;69.20
17697;DHT22;8967;47.984;7.842;2023-04-03T13:18:29;9.90;69.80
17697;DHT22;8967;47.984;7.842;2023-04-03T13:21:03;9.90;70.00
17697;DHT22;8967;47.984;7.842;2023-04-03T13:23:45;9.90;69.70
17697;DHT22;8967;47.984;7.842;2023-04-03T13:26:15;10.00;69.50
17697;DHT22;8967;47.984;7.842;2023-04-03T13:28:46;10.10;67.60
17697;DHT22;8967;47.984;7.842;2023-04-03T13:31:19;10.00;67.70
17697;DHT22;8967;47.984;7.842;2023-04-03T13:33:58;10.00;67.70
17697;DHT22;8967;47.984;7.842;2023-04-03T13:36:33;10.00;67.90
17697;DHT22;8967;47.984;7.842;2023-04-03T13:39:05;9.90;68.10
17697;DHT22;8967;47.984;7.842;2023-04-03T13:41:35;9.80;67.50
17697;DHT22;8967;47.984;7.842;2023-04-03T13:44:27;9.70;67.80
17697;DHT22;8967;47.984;7.842;2023-04-03T13:46:55;9.80;67.70
17697;DHT22;8967;47.984;7.842;2023-04-03T13:49:30;9.70;68.70
17697;DHT22;8967;47.984;7.842;2023-04-03T13:51:58;9.70;67.70
17697;DHT22;8967;47.984;7.842;2023-04-03T13:54:31;9.70;68.20
17697;DHT22;8967;47.984;7.842;2023-04-03T13:56:59;9.70;69.00
17697;DHT22;8967;47.984;7.842;2023-04-03T13:59:29;9.70;69.20
17697;DHT22;8967;47.984;7.842;2023-04-03T14:02:15;9.70;68.50
17697;DHT22;8967;47.984;7.842;2023-04-03T14:04:50;9.80;68.80
17697;DHT22;8967;47.984;7.842;2023-04-03T14:07:19;9.80;68.70
17697;DHT22;8967;47.984;7.842;2023-04-03T14:09:48;9.80;69.40
17697;DHT22;8967;47.984;7.842;2023-04-03T14:12:18;9.70;67.30
17697;DHT22;8967;47.984;7.842;2023-04-03T14:14:46;9.70;67.90
17697;DHT22;8967;47.984;7.842;2023-04-03T14:17:15;9.80;67.40
17697;DHT22;8967;47.984;7.842;2023-04-03T14:19:42;9.70;67.20
17697;DHT22;8967;47.984;7.842;2023-04-03T14:22:14;9.70;67.40
17697;DHT22;8967;47.984;7.842;2023-04-03T14:24:41;9.70;67.80
17697;DHT22;8967;47.984;7.842;2023-04-03T14:27:16;9.70;66.90
17697;DHT22;8967;47.984;7.842;2023-04-03T14:29:43;9.70;66.90
17697;DHT22;8967;47.984;7.842;2023-04-03T14:32:12;9.70;67.70
17697;DHT22;8967;47.984;7.842;2023-04-03T14:34:42;9.70;67.50
17697;DHT22;8967;47.984;7.842;2023-04-03T14:37:12;9.70;67.40
17697;DHT22;8967;47.984;7.842;2023-04-03T14:39:39;9.70;67.40
17697;DHT22;8967;47.984;7.842;2023-04-03T14:42:09;9.70;67.10
17697;DHT22;8967;47.984;7.842;2023-04-03T14:44:38;9.80;67.70
17697;DHT22;8967;47.984;7.842;2023-04-03T14:47:05;9.80;67.50
17697;DHT22;8967;47.984;7.842;2023-04-03T14:49:32;9.80;67.20
17697;DHT22;8967;47.984;7.842;2023-04-03T14:51:59;9.70;66.90
17697;DHT22;8967;47.984;7.842;2023-04-03T14:54:26;9.70;67.00
17697;DHT22;8967;47.984;7.842;2023-04-03T14:56:55;9.70;67.40
17697;DHT22;8967;47.984;7.842;2023-04-03T14:59:23;9.70;67.30
17697;DHT22;8967;47.984;7.842;2023-04-03T15:01:51;9.60;66.60
17697;DHT22;8967;47.984;7.842;2023-04-03T15:04:20;9.60;67.00
17697;DHT22;8967;47.984;7.842;2023-04-03T15:06:48;9.50;67.20
17697;DHT22;8967;47.984;7.842;2023-04-03T15:09:20;9.40;66.50
17697;DHT22;8967;47.984;7.842;2023-04-03T15:11:48;9.30;66.90
17697;DHT22;8967;47.984;7.842;2023-04-03T15:14:15;9.40;67.60
17697;DHT22;8967;47.984;7.842;2023-04-03T15:16:42;9.30;67.50
17697;DHT22;8967;47.984;7.842;2023-04-03T15:19:13;9.40;66.40
17697;DHT22;8967;47.984;7.842;2023-04-03T15:21:40;9.30;66.30
17697;DHT22;8967;47.984;7.842;2023-04-03T15:24:08;9.40;66.80
17697;DHT22;8967;47.984;7.842;2023-04-03T15:26:35;9.40;66.50
17697;DHT22;8967;47.984;7.842;2023-04-03T15:29:04;9.40;66.40
17697;DHT22;8967;47.984;7.842;2023-04-03T15:31:31;9.40;66.90
17697;DHT22;8967;47.984;7.842;2023-04-03T15:33:58;9.40;66.40
17697;DHT22;8967;47.984;7.842;2023-04-03T15:36:26;9.30;66.00
17697;DHT22;8967;47.984;7.842;2023-04-03T15:38:53;9.30;67.10
17697;DHT22;8967;47.984;7.842;2023-04-03T15:41:20;9.30;65.70
17697;DHT22;8967;47.984;7.842;2023-04-03T15:43:47;9.40;65.50
17697;DHT22;8967;47.984;7.842;2023-04-03T15:46:14;9.40;65.00
17697;DHT22;8967;47.984;7.842;2023-04-03T15:48:40;9.40;65.30
17697;DHT22;8967;47.984;7.842;2023-04-03T15:51:10;9.40;65.70
17697;DHT22;8967;47.984;7.842;2023-04-03T15:53:38;9.40;65.30
17697;DHT22;8967;47.984;7.842;2023-04-03T15:56:07;9.30;65.30
17697;DHT22;8967;47.984;7.842;2023-04-03T15:58:35;9.30;65.60
17697;DHT22;8967;47.984;7.842;2023-04-03T16:01:02;9.30;65.90
17697;DHT22;8967;47.984;7.842;2023-04-03T16:03:29;9.20;66.20
17697;DHT22;8967;47.984;7.842;2023-04-03T16:05:56;9.20;66.20
17697;DHT22;8967;47.984;7.842;2023-04-03T16:08:23;9.20;64.90
17697;DHT22;8967;47.984;7.842;2023-04-03T16:10:51;9.20;65.10
17697;DHT22;8967;47.984;7.842;2023-04-03T16:13:18;9.20;65.00
17697;DHT22;8967;47.984;7.842;2023-04-03T16:15:45;9.10;64.60
17697;DHT22;8967;47.984;7.842;2023-04-03T16:18:14;9.10;64.00
17697;DHT22;8967;47.984;7.842;2023-04-03T16:20:41;9.00;63.80
17697;DHT22;8967;47.984;7.842;2023-04-03T16:23:09;9.00;64.40
17697;DHT22;8967;47.984;7.842;2023-04-03T16:25:36;8.90;63.80
17697;DHT22;8967;47.984;7.842;2023-04-03T16:28:04;8.90;64.00
17697;DHT22;8967;47.984;7.842;2023-04-03T16:30:32;8.90;63.80
17697;DHT22;8967;47.984;7.842;2023-04-03T16:32:59;8.90;64.40
17697;DHT22;8967;47.984;7.842;2023-04-03T16:35:26;8.90;64.20
17697;DHT22;8967;47.984;7.842;2023-04-03T16:37:54;8.80;63.90
17697;DHT22;8967;47.984;7.842;2023-04-03T16:40:20;8.80;63.70
17697;DHT22;8967;47.984;7.842;2023-04-03T16:42:47;8.80;64.00